sensor_id;sensor_type;location;lat;lon;timestamp;temperature;humidity
18189;DHT22;9219;50.396;8.546;2024-01-15T00:13:40;-0.80;99.90
18189;DHT22;9219;50.396;8.546;2024-01-15T00:16:21;-1.00;99.90
18189;DHT22;9219;50.396;8.546;2024-01-15T00:23:11;-1.20;99.90
18189;DHT22;9219;50.396;8.546;2024-01-15T00:25:58;-0.90;99.90
18189;DHT22;9219;50.396;8.546;2024-01-15T00:29:51;-1.10;99.90
18189;DHT22;9219;50.396;8.546;2024-01-15T00:32:25;-1.20;99.90
18189;DHT22;9219;50.396;8.546;2024-01-15T00:38:44;-1.30;99.90
18189;DHT22;9219;50.396;8.546;2024-01-15T00:41:26;-1.70;99.90
18189;DHT22;9219;50.396;8.546;2024-01-15T00:44:31;-1.90;99.90
18189;DHT22;9219;50.396;8.546;2024-01-15T00:47:20;-1.90;99.90
18189;DHT22;9219;50.396;8.546;2024-01-15T00:50:09;-1.60;99.90
18189;DHT22;9219;50.396;8.546;2024-01-15T00:53:05;-1.80;99.90
18189;DHT22;9219;50.396;8.546;2024-01-15T00:55:49;-1.80;99.90
18189;DHT22;9219;50.396;8.546;2024-01-15T00:59:12;-1.80;99.90
18189;DHT22;9219;50.396;8.546;2024-01-15T01:01:59;-1.90;99.90
18189;DHT22;9219;50.396;8.546;2024-01-15T01:18:41;-1.90;99.90
18189;DHT22;9219;50.396;8.546;2024-01-15T01:21:08;-1.70;99.90
18189;DHT22;9219;50.396;8.546;2024-01-15T01:24:06;-1.50;99.90
18189;DHT22;9219;50.396;8.546;2024-01-15T01:28:16;-1.40;99.90
18189;DHT22;9219;50.396;8.546;2024-01-15T01:30:40;-1.60;99.90
18189;DHT22;9219;50.396;8.546;2024-01-15T01:34:10;-1.60;99.90
18189;DHT22;9219;50.396;8.546;2024-01-15T01:39:34;-1.60;99.90
18189;DHT22;9219;50.396;8.546;2024-01-15T01:46:36;-1.50;99.90
18189;DHT22;9219;50.396;8.546;2024-01-15T01:49:44;-1.40;99.90
18189;DHT22;9219;50.396;8.546;2024-01-15T01:55:51;-1.20;99.90
18189;DHT22;9219;50.396;8.546;2024-01-15T01:58:38;-1.10;99.90
18189;DHT22;9219;50.396;8.546;2024-01-15T02:01:36;-1.00;99.90
18189;DHT22;9219;50.396;8.546;2024-01-15T02:04:04;-0.90;99.90
18189;DHT22;9219;50.396;8.546;2024-01-15T02:20:38;-0.90;99.90
18189;DHT22;9219;50.396;8.546;2024-01-15T02:23:36;-0.80;99.90
18189;DHT22;9219;50.396;8.546;2024-01-15T02:29:23;-1.20;99.90
18189;DHT22;9219;50.396;8.546;2024-01-15T02:32:38;-1.10;99.90
18189;DHT22;9219;50.396;8.546;2024-01-15T02:39:41;-1.20;99.90
18189;DHT22;9219;50.396;8.546;2024-01-15T02:42:18;-0.90;99.90
18189;DHT22;9219;50.396;8.546;2024-01-15T02:44:57;-1.30;99.90
18189;DHT22;9219;50.396;8.546;2024-01-15T02:47:51;-1.40;99.90
18189;DHT22;9219;50.396;8.546;2024-01-15T02:54:45;-1.50;99.90
18189;DHT22;9219;50.396;8.546;2024-01-15T02:57:25;-1.60;99.90
18189;DHT22;9219;50.396;8.546;2024-01-15T03:00:19;-1.60;99.90
18189;DHT22;9219;50.396;8.546;2024-01-15T03:03:06;-1.50;99.90
18189;DHT22;9219;50.396;8.546;2024-01-15T03:05:49;-1.50;99.90
18189;DHT22;9219;50.396;8.546;2024-01-15T03:19:20;-2.00;99.90
18189;DHT22;9219;50.396;8.546;2024-01-15T03:21:51;-1.70;99.90
18189;DHT22;9219;50.396;8.546;2024-01-15T03:24:19;-1.80;99.90
18189;DHT22;9219;50.396;8.546;2024-01-15T03:26:46;-2.00;99.90
18189;DHT22;9219;50.396;8.546;2024-01-15T03:29:14;-1.90;99.90
18189;DHT22;9219;50.396;8.546;2024-01-15T03:31:44;-1.90;99.90
18189;DHT22;9219;50.396;8.546;2024-01-15T03:34:11;-1.90;99.90
18189;DHT22;9219;50.396;8.546;2024-01-15T03:40:50;-1.90;99.90
18189;DHT22;9219;50.396;8.546;2024-01-15T03:43:39;-1.70;99.90
18189;DHT22;9219;50.396;8.546;2024-01-15T03:46:32;-1.80;99.90
18189;DHT22;9219;50.396;8.546;2024-01-15T03:49:16;-1.60;99.90
18189;DHT22;9219;50.396;8.546;2024-01-15T03:52:24;-1.80;99.90
18189;DHT22;9219;50.396;8.546;2024-01-15T03:55:33;-1.70;99.90
18189;DHT22;9219;50.396;8.546;2024-01-15T04:01:54;-2.00;99.90
18189;DHT22;9219;50.396;8.546;2024-01-15T04:04:25;-1.60;99.90
18189;DHT22;9219;50.396;8.546;2024-01-15T04:07:09;-1.80;99.90
18189;DHT22;9219;50.396;8.546;2024-01-15T04:09:52;-1.90;99.90
18189;DHT22;9219;50.396;8.546;2024-01-15T04:12:44;-1.80;99.90
18189;DHT22;9219;50.396;8.546;2024-01-15T04:15:57;-1.70;99.90
18189;DHT22;9219;50.396;8.546;2024-01-15T04:18:45;-1.70;99.90
18189;DHT22;9219;50.396;8.546;2024-01-15T04:34:36;-1.60;99.90
18189;DHT22;9219;50.396;8.546;2024-01-15T04:37:23;-1.50;99.90
18189;DHT22;9219;50.396;8.546;2024-01-15T04:43:26;-1.60;99.90
18189;DHT22;9219;50.396;8.546;2024-01-15T04:46:33;-1.60;99.90
18189;DHT22;9219;50.396;8.546;2024-01-15T04:51:42;-1.80;99.90
18189;DHT22;9219;50.396;8.546;2024-01-15T04:52:26;-1.70;99.90
18189;DHT22;9219;50.396;8.546;2024-01-15T04:55:09;-1.90;99.90
18189;DHT22;9219;50.396;8.546;2024-01-15T05:04:24;-1.40;99.90
18189;DHT22;9219;50.396;8.546;2024-01-15T05:07:50;-1.50;99.90
18189;DHT22;9219;50.396;8.546;2024-01-15T05:13:45;-1.30;99.90
18189;DHT22;9219;50.396;8.546;2024-01-15T05:16:26;-1.60;99.90
18189;DHT22;9219;50.396;8.546;2024-01-15T05:19:11;-1.70;99.90
18189;DHT22;9219;50.396;8.546;2024-01-15T05:25:03;-1.60;99.90
18189;DHT22;9219;50.396;8.546;2024-01-15T05:28:04;-1.90;99.90
18189;DHT22;9219;50.396;8.546;2024-01-15T05:30:39;-1.70;99.90
18189;DHT22;9219;50.396;8.546;2024-01-15T05:33:45;-1.60;99.90
18189;DHT22;9219;50.396;8.546;2024-01-15T05:40:57;-1.40;99.90
18189;DHT22;9219;50.396;8.546;2024-01-15T05:43:42;-1.30;99.90
18189;DHT22;9219;50.396;8.546;2024-01-15T05:46:26;-1.30;99.90
18189;DHT22;9219;50.396;8.546;2024-01-15T05:49:19;-1.50;99.90
18189;DHT22;9219;50.396;8.546;2024-01-15T05:51:59;-1.40;99.90
18189;DHT22;9219;50.396;8.546;2024-01-15T05:54:46;-1.30;99.90
18189;DHT22;9219;50.396;8.546;2024-01-15T06:08:40;-1.40;99.90
18189;DHT22;9219;50.396;8.546;2024-01-15T06:11:32;-1.50;99.90
18189;DHT22;9219;50.396;8.546;2024-01-15T06:14:34;-1.50;99.90
18189;DHT22;9219;50.396;8.546;2024-01-15T06:20:54;-1.60;99.90
18189;DHT22;9219;50.396;8.546;2024-01-15T06:23:47;-1.50;99.90
18189;DHT22;9219;50.396;8.546;2024-01-15T06:26:39;-1.60;99.90
18189;DHT22;9219;50.396;8.546;2024-01-15T06:29:32;-1.50;99.90
18189;DHT22;9219;50.396;8.546;2024-01-15T06:36:32;-1.80;99.90
18189;DHT22;9219;50.396;8.546;2024-01-15T06:39:25;-1.70;99.90
18189;DHT22;9219;50.396;8.546;2024-01-15T06:42:26;-1.60;99.90
18189;DHT22;9219;50.396;8.546;2024-01-15T06:45:14;-1.40;99.90
18189;DHT22;9219;50.396;8.546;2024-01-15T06:56:11;-1.30;99.90
18189;DHT22;9219;50.396;8.546;2024-01-15T06:58:38;-1.50;99.90
18189;DHT22;9219;50.396;8.546;2024-01-15T07:01:06;-1.60;99.90
18189;DHT22;9219;50.396;8.546;2024-01-15T07:03:34;-1.50;99.90
18189;DHT22;9219;50.396;8.546;2024-01-15T07:06:02;-1.50;99.90
18189;DHT22;9219;50.396;8.546;2024-01-15T07:08:30;-1.40;99.90
18189;DHT22;9219;50.396;8.546;2024-01-15T07:10:57;-1.10;99.90
18189;DHT22;9219;50.396;8.546;2024-01-15T07:35:46;-0.80;99.90
18189;DHT22;9219;50.396;8.546;2024-01-15T07:38:52;-0.70;99.90
18189;DHT22;9219;50.396;8.546;2024-01-15T07:48:57;-0.60;99.90
18189;DHT22;9219;50.396;8.546;2024-01-15T07:55:05;-0.50;99.90
18189;DHT22;9219;50.396;8.546;2024-01-15T07:57:43;-0.70;99.90
18189;DHT22;9219;50.396;8.546;2024-01-15T08:00:48;-0.90;99.90
18189;DHT22;9219;50.396;8.546;2024-01-15T08:04:19;-0.80;99.90
18189;DHT22;9219;50.396;8.546;2024-01-15T08:07:25;-0.90;99.90
18189;DHT22;9219;50.396;8.546;2024-01-15T08:10:56;-0.70;99.90
18189;DHT22;9219;50.396;8.546;2024-01-15T08:14:11;-0.70;99.90
18189;DHT22;9219;50.396;8.546;2024-01-15T08:43:04;-0.50;99.90
18189;DHT22;9219;50.396;8.546;2024-01-15T08:46:08;-0.70;99.90
18189;DHT22;9219;50.396;8.546;2024-01-15T08:49:35;-0.80;99.90
18189;DHT22;9219;50.396;8.546;2024-01-15T08:53:00;-0.90;99.90
18189;DHT22;9219;50.396;8.546;2024-01-15T08:55:34;-1.10;99.90
18189;DHT22;9219;50.396;8.546;2024-01-15T08:58:17;-1.10;99.90
18189;DHT22;9219;50.396;8.546;2024-01-15T09:00:48;-1.00;99.90
18189;DHT22;9219;50.396;8.546;2024-01-15T09:03:33;-1.00;99.90
18189;DHT22;9219;50.396;8.546;2024-01-15T09:06:12;-1.10;99.90
18189;DHT22;9219;50.396;8.546;2024-01-15T09:08:45;-1.20;99.90
18189;DHT22;9219;50.396;8.546;2024-01-15T09:11:25;-1.30;99.90
18189;DHT22;9219;50.396;8.546;2024-01-15T09:14:14;-1.10;99.90
18189;DHT22;9219;50.396;8.546;2024-01-15T09:36:37;-0.80;99.90
18189;DHT22;9219;50.396;8.546;2024-01-15T09:39:31;-0.30;99.90
18189;DHT22;9219;50.396;8.546;2024-01-15T09:42:21;-0.40;99.90
18189;DHT22;9219;50.396;8.546;2024-01-15T09:48:59;-0.40;99.90
18189;DHT22;9219;50.396;8.546;2024-01-15T09:58:37;-0.40;99.90
18189;DHT22;9219;50.396;8.546;2024-01-15T10:01:11;-0.50;99.90
18189;DHT22;9219;50.396;8.546;2024-01-15T10:03:52;-0.40;99.90
18189;DHT22;9219;50.396;8.546;2024-01-15T10:06:35;-0.60;99.90
18189;DHT22;9219;50.396;8.546;2024-01-15T10:09:44;-0.50;99.90
18189;DHT22;9219;50.396;8.546;2024-01-15T10:27:59;-0.80;99.90
18189;DHT22;9219;50.396;8.546;2024-01-15T10:30:29;-0.10;99.90
18189;DHT22;9219;50.396;8.546;2024-01-15T10:33:00;-0.30;99.90
18189;DHT22;9219;50.396;8.546;2024-01-15T10:35:29;-0.40;99.90
18189;DHT22;9219;50.396;8.546;2024-01-15T10:37:57;-0.30;99.90
18189;DHT22;9219;50.396;8.546;2024-01-15T10:40:24;-0.30;99.90
18189;DHT22;9219;50.396;8.546;2024-01-15T10:49:17;-0.10;99.90
18189;DHT22;9219;50.396;8.546;2024-01-15T10:53:22;-0.10;99.90
18189;DHT22;9219;50.396;8.546;2024-01-15T10:54:59;-0.10;99.90
18189;DHT22;9219;50.396;8.546;2024-01-15T10:57:52;0.00;99.90
18189;DHT22;9219;50.396;8.546;2024-01-15T11:00:35;0.00;99.90
18189;DHT22;9219;50.396;8.546;2024-01-15T11:03:17;0.00;99.90
18189;DHT22;9219;50.396;8.546;2024-01-15T11:05:48;-0.10;99.90
18189;DHT22;9219;50.396;8.546;2024-01-15T11:08:39;0.20;99.90
18189;DHT22;9219;50.396;8.546;2024-01-15T11:11:21;0.30;99.90
18189;DHT22;9219;50.396;8.546;2024-01-15T11:27:01;0.20;99.90
18189;DHT22;9219;50.396;8.546;2024-01-15T11:29:30;0.50;99.90
18189;DHT22;9219;50.396;8.546;2024-01-15T11:32:05;0.40;99.90
18189;DHT22;9219;50.396;8.546;2024-01-15T11:34:55;0.60;99.90
18189;DHT22;9219;50.396;8.546;2024-01-15T11:37:26;0.30;99.90
18189;DHT22;9219;50.396;8.546;2024-01-15T11:39:55;0.10;99.90
18189;DHT22;9219;50.396;8.546;2024-01-15T11:48:23;-0.10;99.90
18189;DHT22;9219;50.396;8.546;2024-01-15T11:51:18;0.10;99.90
18189;DHT22;9219;50.396;8.546;2024-01-15T11:53:55;0.10;99.90
18189;DHT22;9219;50.396;8.546;2024-01-15T11:56:32;-0.30;99.90
18189;DHT22;9219;50.396;8.546;2024-01-15T11:58:59;-0.30;99.90
18189;DHT22;9219;50.396;8.546;2024-01-15T12:01:39;-0.30;99.90
18189;DHT22;9219;50.396;8.546;2024-01-15T12:04:08;-0.30;99.90
18189;DHT22;9219;50.396;8.546;2024-01-15T12:06:45;-0.30;99.90
18189;DHT22;9219;50.396;8.546;2024-01-15T12:09:23;-0.50;99.90
18189;DHT22;9219;50.396;8.546;2024-01-15T12:12:00;-0.50;99.90
18189;DHT22;9219;50.396;8.546;2024-01-15T12:18:41;-0.80;99.90
18189;DHT22;9219;50.396;8.546;2024-01-15T12:21:38;-0.90;99.90
18189;DHT22;9219;50.396;8.546;2024-01-15T12:24:19;-0.80;99.90
18189;DHT22;9219;50.396;8.546;2024-01-15T12:26:52;-0.90;99.90
18189;DHT22;9219;50.396;8.546;2024-01-15T12:29:27;-0.80;99.90
18189;DHT22;9219;50.396;8.546;2024-01-15T12:32:12;-0.80;99.90
18189;DHT22;9219;50.396;8.546;2024-01-15T12:34:44;-0.80;99.90
18189;DHT22;9219;50.396;8.546;2024-01-15T12:37:27;-0.60;99.90
18189;DHT22;9219;50.396;8.546;2024-01-15T12:40:06;-0.90;99.90
18189;DHT22;9219;50.396;8.546;2024-01-15T12:42:45;-0.90;99.90
18189;DHT22;9219;50.396;8.546;2024-01-15T12:45:18;-0.90;99.90
18189;DHT22;9219;50.396;8.546;2024-01-15T12:53:46;-0.90;99.90
18189;DHT22;9219;50.396;8.546;2024-01-15T12:56:20;-1.00;99.90
18189;DHT22;9219;50.396;8.546;2024-01-15T12:58:50;-1.00;99.90
18189;DHT22;9219;50.396;8.546;2024-01-15T13:01:23;-0.90;99.90
18189;DHT22;9219;50.396;8.546;2024-01-15T13:04:00;-0.90;99.90
18189;DHT22;9219;50.396;8.546;2024-01-15T13:06:28;-0.90;99.90
18189;DHT22;9219;50.396;8.546;2024-01-15T13:09:14;-0.80;99.90
18189;DHT22;9219;50.396;8.546;2024-01-15T13:11:42;-0.70;99.90
18189;DHT22;9219;50.396;8.546;2024-01-15T13:14:10;-0.70;99.90
18189;DHT22;9219;50.396;8.546;2024-01-15T13:16:41;-0.70;99.90
18189;DHT22;9219;50.396;8.546;2024-01-15T13:27:52;-0.70;99.90
18189;DHT22;9219;50.396;8.546;2024-01-15T13:30:22;-0.70;99.90
18189;DHT22;9219;50.396;8.546;2024-01-15T13:33:19;-0.80;99.90
18189;DHT22;9219;50.396;8.546;2024-01-15T13:35:48;-0.60;99.90
18189;DHT22;9219;50.396;8.546;2024-01-15T13:38:16;-0.60;99.90
18189;DHT22;9219;50.396;8.546;2024-01-15T13:40:43;-0.70;99.90
18189;DHT22;9219;50.396;8.546;2024-01-15T13:43:17;-0.70;99.90
18189;DHT22;9219;50.396;8.546;2024-01-15T13:45:52;-0.70;99.90
18189;DHT22;9219;50.396;8.546;2024-01-15T13:51:19;-0.80;99.90
18189;DHT22;9219;50.396;8.546;2024-01-15T13:53:57;-0.60;99.90
18189;DHT22;9219;50.396;8.546;2024-01-15T13:56:42;-0.60;99.90
18189;DHT22;9219;50.396;8.546;2024-01-15T13:59:16;-0.70;99.90
18189;DHT22;9219;50.396;8.546;2024-01-15T14:01:58;-0.70;99.90
18189;DHT22;9219;50.396;8.546;2024-01-15T14:04:32;-0.80;99.90
18189;DHT22;9219;50.396;8.546;2024-01-15T14:07:00;-0.70;99.90
18189;DHT22;9219;50.396;8.546;2024-01-15T14:09:49;-0.70;99.90
18189;DHT22;9219;50.396;8.546;2024-01-15T14:12:19;-0.70;99.90
18189;DHT22;9219;50.396;8.546;2024-01-15T14:14:56;-0.70;99.90
18189;DHT22;9219;50.396;8.546;2024-01-15T14:17:29;-0.70;99.90
18189;DHT22;9219;50.396;8.546;2024-01-15T14:24:48;-0.70;99.90
18189;DHT22;9219;50.396;8.546;2024-01-15T14:27:16;-0.60;99.90
18189;DHT22;9219;50.396;8.546;2024-01-15T14:29:44;-0.70;99.90
18189;DHT22;9219;50.396;8.546;2024-01-15T14:32:32;-0.70;99.90
18189;DHT22;9219;50.396;8.546;2024-01-15T14:35:12;-0.70;99.90
18189;DHT22;9219;50.396;8.546;2024-01-15T14:38:02;-0.70;99.90
18189;DHT22;9219;50.396;8.546;2024-01-15T14:40:38;-0.70;99.90
18189;DHT22;9219;50.396;8.546;2024-01-15T14:43:19;-0.60;99.90
18189;DHT22;9219;50.396;8.546;2024-01-15T14:45:50;-0.60;99.90
18189;DHT22;9219;50.396;8.546;2024-01-15T14:53:41;-0.60;99.90
18189;DHT22;9219;50.396;8.546;2024-01-15T14:56:21;-0.60;99.90
18189;DHT22;9219;50.396;8.546;2024-01-15T14:59:16;-0.50;99.90
18189;DHT22;9219;50.396;8.546;2024-01-15T15:01:50;-0.60;99.90
18189;DHT22;9219;50.396;8.546;2024-01-15T15:04:18;-0.70;99.90
18189;DHT22;9219;50.396;8.546;2024-01-15T15:06:58;-0.50;99.90
18189;DHT22;9219;50.396;8.546;2024-01-15T15:09:34;-0.50;99.90
18189;DHT22;9219;50.396;8.546;2024-01-15T15:12:04;-0.50;99.90
18189;DHT22;9219;50.396;8.546;2024-01-15T15:14:45;-0.40;99.90
18189;DHT22;9219;50.396;8.546;2024-01-15T15:17:33;-0.50;99.90
18189;DHT22;9219;50.396;8.546;2024-01-15T15:20:35;-0.50;99.90
18189;DHT22;9219;50.396;8.546;2024-01-15T15:23:03;-0.60;99.90
18189;DHT22;9219;50.396;8.546;2024-01-15T15:25:45;-0.60;99.90
18189;DHT22;9219;50.396;8.546;2024-01-15T15:28:21;-0.60;99.90
18189;DHT22;9219;50.396;8.546;2024-01-15T15:30:55;-0.60;99.90
18189;DHT22;9219;50.396;8.546;2024-01-15T15:33:27;-0.60;99.90
18189;DHT22;9219;50.396;8.546;2024-01-15T15:35:55;-0.70;99.90
18189;DHT22;9219;50.396;8.546;2024-01-15T15:38:29;-0.70;99.90
18189;DHT22;9219;50.396;8.546;2024-01-15T15:41:00;-0.60;99.90
18189;DHT22;9219;50.396;8.546;2024-01-15T15:43:35;-0.50;99.90
18189;DHT22;9219;50.396;8.546;2024-01-15T15:52:30;-0.50;99.90
18189;DHT22;9219;50.396;8.546;2024-01-15T15:55:14;-0.60;99.90
18189;DHT22;9219;50.396;8.546;2024-01-15T15:57:58;-0.50;99.90
18189;DHT22;9219;50.396;8.546;2024-01-15T16:00:27;-0.50;99.90
18189;DHT22;9219;50.396;8.546;2024-01-15T16:02:59;-0.60;99.90
18189;DHT22;9219;50.396;8.546;2024-01-15T16:05:28;-0.50;99.90
18189;DHT22;9219;50.396;8.546;2024-01-15T16:08:12;-0.60;99.90
18189;DHT22;9219;50.396;8.546;2024-01-15T16:10:43;-0.60;99.90
18189;DHT22;9219;50.396;8.546;2024-01-15T16:13:14;-0.50;99.90
18189;DHT22;9219;50.396;8.546;2024-01-15T16:15:54;-0.50;99.90
18189;DHT22;9219;50.396;8.546;2024-01-15T16:20:00;-0.50;99.90
18189;DHT22;9219;50.396;8.546;2024-01-15T16:23:12;-0.70;99.90
18189;DHT22;9219;50.396;8.546;2024-01-15T16:26:15;-0.70;99.90
18189;DHT22;9219;50.396;8.546;2024-01-15T16:28:44;-0.60;99.90
18189;DHT22;9219;50.396;8.546;2024-01-15T16:31:20;-0.60;99.90
18189;DHT22;9219;50.396;8.546;2024-01-15T16:33:51;-0.70;99.90
18189;DHT22;9219;50.396;8.546;2024-01-15T16:36:37;-0.70;99.90
18189;DHT22;9219;50.396;8.546;2024-01-15T16:39:11;-0.80;99.90
18189;DHT22;9219;50.396;8.546;2024-01-15T16:47:02;-0.80;99.90
18189;DHT22;9219;50.396;8.546;2024-01-15T16:49:33;-0.80;99.90
18189;DHT22;9219;50.396;8.546;2024-01-15T16:52:01;-0.80;99.90
18189;DHT22;9219;50.396;8.546;2024-01-15T16:54:33;-0.80;99.90
18189;DHT22;9219;50.396;8.546;2024-01-15T16:57:01;-0.80;99.90
18189;DHT22;9219;50.396;8.546;2024-01-15T16:59:28;-0.80;99.90
18189;DHT22;9219;50.396;8.546;2024-01-15T17:01:56;-0.80;99.90
18189;DHT22;9219;50.396;8.546;2024-01-15T17:09:24;-0.50;99.90
18189;DHT22;9219;50.396;8.546;2024-01-15T17:12:09;-0.70;99.90
18189;DHT22;9219;50.396;8.546;2024-01-15T17:14:54;-0.70;99.90
18189;DHT22;9219;50.396;8.546;2024-01-15T17:17:39;-0.70;99.90
18189;DHT22;9219;50.396;8.546;2024-01-15T17:20:28;-0.70;99.90
18189;DHT22;9219;50.396;8.546;2024-01-15T17:23:00;-0.80;99.90
18189;DHT22;9219;50.396;8.546;2024-01-15T17:25:30;-0.80;99.90
18189;DHT22;9219;50.396;8.546;2024-01-15T17:28:00;-0.90;99.90
18189;DHT22;9219;50.396;8.546;2024-01-15T17:30:34;-0.80;99.90
18189;DHT22;9219;50.396;8.546;2024-01-15T17:33:32;-0.90;99.90
18189;DHT22;9219;50.396;8.546;2024-01-15T17:36:00;-0.80;99.90
18189;DHT22;9219;50.396;8.546;2024-01-15T17:38:28;-0.90;99.90
18189;DHT22;9219;50.396;8.546;2024-01-15T17:40:55;-0.80;99.90
18189;DHT22;9219;50.396;8.546;2024-01-15T17:43:24;-0.90;99.90
18189;DHT22;9219;50.396;8.546;2024-01-15T17:45:51;-0.80;99.90
18189;DHT22;9219;50.396;8.546;2024-01-15T17:48:20;-0.90;99.90
18189;DHT22;9219;50.396;8.546;2024-01-15T17:55:40;-0.60;99.90
18189;DHT22;9219;50.396;8.546;2024-01-15T17:58:24;-0.70;99.90
18189;DHT22;9219;50.396;8.546;2024-01-15T18:00:57;-0.90;99.90
18189;DHT22;9219;50.396;8.546;2024-01-15T18:03:33;-0.80;99.90
18189;DHT22;9219;50.396;8.546;2024-01-15T18:06:15;-0.70;99.90
18189;DHT22;9219;50.396;8.546;2024-01-15T18:09:10;-0.70;99.90
18189;DHT22;9219;50.396;8.546;2024-01-15T18:11:49;-0.70;99.90
18189;DHT22;9219;50.396;8.546;2024-01-15T18:14:16;-0.70;99.90
18189;DHT22;9219;50.396;8.546;2024-01-15T18:16:46;-0.80;99.90
18189;DHT22;9219;50.396;8.546;2024-01-15T18:19:20;-0.80;99.90
18189;DHT22;9219;50.396;8.546;2024-01-15T18:25:46;-0.80;99.90
18189;DHT22;9219;50.396;8.546;2024-01-15T18:28:46;-0.90;99.90
18189;DHT22;9219;50.396;8.546;2024-01-15T18:31:26;-0.90;99.90
18189;DHT22;9219;50.396;8.546;2024-01-15T18:34:22;-0.90;99.90
18189;DHT22;9219;50.396;8.546;2024-01-15T18:36:53;-0.80;99.90
18189;DHT22;9219;50.396;8.546;2024-01-15T18:39:34;-1.00;99.90
18189;DHT22;9219;50.396;8.546;2024-01-15T18:42:05;-1.10;99.90
18189;DHT22;9219;50.396;8.546;2024-01-15T18:44:33;-1.10;99.90
18189;DHT22;9219;50.396;8.546;2024-01-15T18:47:03;-1.10;99.90
18189;DHT22;9219;50.396;8.546;2024-01-15T18:49:30;-1.10;99.90
18189;DHT22;9219;50.396;8.546;2024-01-15T19:05:33;-1.10;99.90
18189;DHT22;9219;50.396;8.546;2024-01-15T19:08:13;-1.10;99.90
18189;DHT22;9219;50.396;8.546;2024-01-15T19:11:01;-1.20;99.90
18189;DHT22;9219;50.396;8.546;2024-01-15T19:13:35;-1.20;99.90
18189;DHT22;9219;50.396;8.546;2024-01-15T19:16:32;-1.10;99.90
18189;DHT22;9219;50.396;8.546;2024-01-15T19:19:16;-1.20;99.90
18189;DHT22;9219;50.396;8.546;2024-01-15T19:21:59;-1.20;99.90
18189;DHT22;9219;50.396;8.546;2024-01-15T19:24:36;-1.20;99.90
18189;DHT22;9219;50.396;8.546;2024-01-15T19:27:08;-1.20;99.90
18189;DHT22;9219;50.396;8.546;2024-01-15T19:32:51;-1.20;99.90
18189;DHT22;9219;50.396;8.546;2024-01-15T19:38:42;-1.30;99.90
18189;DHT22;9219;50.396;8.546;2024-01-15T19:41:15;-1.20;99.90
18189;DHT22;9219;50.396;8.546;2024-01-15T19:43:58;-1.20;99.90
18189;DHT22;9219;50.396;8.546;2024-01-15T19:46:35;-1.20;99.90
18189;DHT22;9219;50.396;8.546;2024-01-15T19:49:44;-1.20;99.90
18189;DHT22;9219;50.396;8.546;2024-01-15T19:52:20;-1.20;99.90
18189;DHT22;9219;50.396;8.546;2024-01-15T19:54:56;-1.20;99.90
18189;DHT22;9219;50.396;8.546;2024-01-15T20:02:38;-1.30;99.90
18189;DHT22;9219;50.396;8.546;2024-01-15T20:05:07;-1.30;99.90
18189;DHT22;9219;50.396;8.546;2024-01-15T20:07:36;-1.30;99.90
18189;DHT22;9219;50.396;8.546;2024-01-15T20:10:03;-1.30;99.90
18189;DHT22;9219;50.396;8.546;2024-01-15T20:12:31;-1.40;99.90
18189;DHT22;9219;50.396;8.546;2024-01-15T20:14:58;-1.40;99.90
18189;DHT22;9219;50.396;8.546;2024-01-15T20:17:28;-1.40;99.90
18189;DHT22;9219;50.396;8.546;2024-01-15T20:25:00;-1.30;99.90
18189;DHT22;9219;50.396;8.546;2024-01-15T20:27:28;-1.20;99.90
18189;DHT22;9219;50.396;8.546;2024-01-15T20:29:57;-1.20;99.90
18189;DHT22;9219;50.396;8.546;2024-01-15T20:32:24;-1.20;99.90
18189;DHT22;9219;50.396;8.546;2024-01-15T20:34:52;-1.20;99.90
18189;DHT22;9219;50.396;8.546;2024-01-15T20:37:19;-1.20;99.90
18189;DHT22;9219;50.396;8.546;2024-01-15T20:39:47;-1.20;99.90
18189;DHT22;9219;50.396;8.546;2024-01-15T20:44:58;-1.20;99.90
18189;DHT22;9219;50.396;8.546;2024-01-15T20:47:27;-1.20;99.90
18189;DHT22;9219;50.396;8.546;2024-01-15T20:50:03;-1.20;99.90
18189;DHT22;9219;50.396;8.546;2024-01-15T20:52:37;-1.20;99.90
18189;DHT22;9219;50.396;8.546;2024-01-15T20:55:22;-1.30;99.90
18189;DHT22;9219;50.396;8.546;2024-01-15T20:57:59;-1.20;99.90
18189;DHT22;9219;50.396;8.546;2024-01-15T21:00:32;-1.20;99.90
18189;DHT22;9219;50.396;8.546;2024-01-15T21:02:59;-1.10;99.90
18189;DHT22;9219;50.396;8.546;2024-01-15T21:05:42;-1.10;99.90
18189;DHT22;9219;50.396;8.546;2024-01-15T21:08:14;-1.10;99.90
18189;DHT22;9219;50.396;8.546;2024-01-15T21:10:43;-1.20;99.90
18189;DHT22;9219;50.396;8.546;2024-01-15T21:15:57;-1.20;99.90
18189;DHT22;9219;50.396;8.546;2024-01-15T21:18:25;-1.10;99.90
18189;DHT22;9219;50.396;8.546;2024-01-15T21:21:03;-1.10;99.90
18189;DHT22;9219;50.396;8.546;2024-01-15T21:23:32;-1.00;99.90
18189;DHT22;9219;50.396;8.546;2024-01-15T21:26:17;-1.00;99.90
18189;DHT22;9219;50.396;8.546;2024-01-15T21:28:52;-1.10;99.90
18189;DHT22;9219;50.396;8.546;2024-01-15T21:31:26;-1.00;99.90
18189;DHT22;9219;50.396;8.546;2024-01-15T21:34:02;-1.10;99.90
18189;DHT22;9219;50.396;8.546;2024-01-15T21:36:36;-1.10;99.90
18189;DHT22;9219;50.396;8.546;2024-01-15T21:39:08;-1.10;99.90
18189;DHT22;9219;50.396;8.546;2024-01-15T21:42:13;-1.20;99.90
18189;DHT22;9219;50.396;8.546;2024-01-15T21:44:59;-1.20;99.90
18189;DHT22;9219;50.396;8.546;2024-01-15T21:47:48;-1.30;99.90
18189;DHT22;9219;50.396;8.546;2024-01-15T21:50:36;-1.10;99.90
18189;DHT22;9219;50.396;8.546;2024-01-15T21:53:06;-1.10;99.90
18189;DHT22;9219;50.396;8.546;2024-01-15T21:56:16;-1.00;99.90
18189;DHT22;9219;50.396;8.546;2024-01-15T21:58:55;-1.10;99.90
18189;DHT22;9219;50.396;8.546;2024-01-15T22:01:29;-1.00;99.90
18189;DHT22;9219;50.396;8.546;2024-01-15T22:04:03;-1.10;99.90
18189;DHT22;9219;50.396;8.546;2024-01-15T22:06:50;-1.00;99.90
18189;DHT22;9219;50.396;8.546;2024-01-15T22:09:18;-0.90;99.90
18189;DHT22;9219;50.396;8.546;2024-01-15T22:12:10;-1.00;99.90
18189;DHT22;9219;50.396;8.546;2024-01-15T22:14:43;-1.10;99.90
18189;DHT22;9219;50.396;8.546;2024-01-15T22:32:58;-1.10;99.90
18189;DHT22;9219;50.396;8.546;2024-01-15T22:35:25;-0.80;99.90
18189;DHT22;9219;50.396;8.546;2024-01-15T22:38:06;-0.90;99.90
18189;DHT22;9219;50.396;8.546;2024-01-15T22:40:36;-0.90;99.90
18189;DHT22;9219;50.396;8.546;2024-01-15T22:43:23;-0.90;99.90
18189;DHT22;9219;50.396;8.546;2024-01-15T22:46:04;-1.10;99.90
18189;DHT22;9219;50.396;8.546;2024-01-15T22:48:45;-1.10;99.90
18189;DHT22;9219;50.396;8.546;2024-01-15T22:51:25;-1.10;99.90
18189;DHT22;9219;50.396;8.546;2024-01-15T22:54:01;-1.00;99.90
18189;DHT22;9219;50.396;8.546;2024-01-15T22:56:46;-1.00;99.90
18189;DHT22;9219;50.396;8.546;2024-01-15T23:07:22;-0.90;99.90
18189;DHT22;9219;50.396;8.546;2024-01-15T23:09:57;-1.00;99.90
18189;DHT22;9219;50.396;8.546;2024-01-15T23:12:26;-1.10;99.90
18189;DHT22;9219;50.396;8.546;2024-01-15T23:15:11;-1.10;99.90
18189;DHT22;9219;50.396;8.546;2024-01-15T23:17:56;-1.10;99.90
18189;DHT22;9219;50.396;8.546;2024-01-15T23:20:41;-1.20;99.90
18189;DHT22;9219;50.396;8.546;2024-01-15T23:23:24;-1.20;99.90
18189;DHT22;9219;50.396;8.546;2024-01-15T23:25:54;-1.20;99.90
18189;DHT22;9219;50.396;8.546;2024-01-15T23:28:47;-1.20;99.90
18189;DHT22;9219;50.396;8.546;2024-01-15T23:31:26;-1.00;99.90
18189;DHT22;9219;50.396;8.546;2024-01-15T23:36:52;-0.90;99.90
18189;DHT22;9219;50.396;8.546;2024-01-15T23:39:46;-1.20;99.90
18189;DHT22;9219;50.396;8.546;2024-01-15T23:42:17;-1.20;99.90
18189;DHT22;9219;50.396;8.546;2024-01-15T23:48:13;-1.10;99.90
18189;DHT22;9219;50.396;8.546;2024-01-15T23:50:41;-0.90;99.90
18189;DHT22;9219;50.396;8.546;2024-01-15T23:53:36;-1.10;99.90
18189;DHT22;9219;50.396;8.546;2024-01-15T23:56:07;-1.00;99.90
18189;DHT22;9219;50.396;8.546;2024-01-15T23:58:46;-1.10;99.90
